Companion Ship — WDF3026 — position and weather

sailwx.info

Track history (hours):
 
Tides and Currents Weather Stations Pressure Air Temp Water Temp Dewpoint Dewpoint Depression Visibility Wind Speed Wind Dir Waves Ship Positions

Companion Ship

Owner: brunkow, robert w, friday harbor, WA. More information available from US FCC via Universal Licensing System and Coast Guard Vessel Documentation Center.

Last reported at 2015-May-25 16:29 UTC. Time now 2015-May-29 18:27 UTC.
Position N 52°15' W 128°21'.

Length 20 m; draft 2 m.

Type: Pleasure craft. MMSI: 367434940.

Date/timePositionNaut miles runAvg speedWind from/ knotsBaromVisibWave heightAir tempDewpointWater temp
2015-May-25 16:29N 52°15' W 128°21'1010.3
2015-May-25 15:33N 52°11' W 128°07'2 2.2
2015-May-25 14:33N 52°09' W 128°05'0 0.0
2015-May-25 13:33N 52°09' W 128°05'0 0.1
2015-May-25 12:34N 52°09' W 128°05'0 0.0
2015-May-25 11:33N 52°09' W 128°05'0 0.0
2015-May-25 10:34N 52°09' W 128°05'0 0.0
2015-May-25 09:33N 52°09' W 128°05'0 0.0
2015-May-25 08:33N 52°09' W 128°05'0 0.0
2015-May-25 07:33N 52°09' W 128°05'0 0.0
2015-May-25 06:33N 52°09' W 128°05'0 0.0
2015-May-25 05:33N 52°09' W 128°05'0 0.0
2015-May-25 04:33N 52°09' W 128°05'0 0.0
2015-May-25 03:33N 52°09' W 128°05'0 0.0
2015-May-25 02:33N 52°09' W 128°05'0 0.0
2015-May-25 01:33N 52°09' W 128°05'0 0.0
2015-May-25 00:33N 52°09' W 128°05'0 0.0
2015-May-24 23:33N 52°09' W 128°05'0 0.0
2015-May-24 22:33N 52°09' W 128°05'0 0.0
2015-May-24 21:33N 52°09' W 128°05'0 0.0
2015-May-24 20:33N 52°09' W 128°05'0 0.0
2015-May-24 19:33N 52°09' W 128°05'5 4.5
2015-May-24 18:31N 52°05' W 128°02'8 8.5
2015-May-24 17:33N 51°57' W 127°56'1010.0
2015-May-24 16:32N 51°47' W 127°57'9 0.4
2015-May-23 19:31N 51°38' W 127°56'1110.9
2015-May-23 18:31N 51°28' W 127°52'2110.6
2015-May-23 16:33N 51°07' W 127°47'1312.6
2015-May-23 15:33N 50°58' W 127°33'1212.6
2015-May-23 14:33N 50°48' W 127°21'  
2015-May-21 07:23N 49°10' W 123°56'0 0.0
2015-May-21 01:06N 49°10' W 123°56'0 0.0
2015-May-20 23:04N 49°10' W 123°56'0 0.0
2015-May-20 22:10N 49°10' W 123°56'0 0.0
2015-May-20 20:30N 49°10' W 123°56'29 6.6
2015-May-20 16:12N 48°50' W 123°25'7 8.9
2015-May-20 15:24N 48°44' W 123°21'10 5.2
2015-May-20 13:26N 48°37' W 123°09'0 0.1
2015-May-20 12:22N 48°37' W 123°09'0 0.0
2015-May-20 11:34N 48°37' W 123°09'0 0.0
2015-May-20 10:24N 48°37' W 123°09'0 0.0
2015-May-20 09:28N 48°37' W 123°09'0 0.0
2015-May-20 08:59N 48°37' W 123°09'0 0.0
2015-May-20 08:30N 48°37' W 123°09'0 0.0
2015-May-20 08:09N 48°37' W 123°09'0 0.0
2015-May-20 06:58N 48°37' W 123°09'0 0.0
2015-May-19 20:18N 48°37' W 123°09'0 0.0
2015-May-19 19:09N 48°37' W 123°09'0 0.0
2015-May-18 21:43N 48°37' W 123°09'0 0.0
2015-May-18 17:30N 48°37' W 123°09'0 0.0
2015-May-18 16:33N 48°37' W 123°09'0 0.0
2015-May-18 15:23N 48°37' W 123°09'0 0.0
2015-May-18 14:27N 48°37' W 123°09'0 0.0
2015-May-18 13:29N 48°37' W 123°09'0 0.0
2015-May-18 12:33N 48°37' W 123°09'0 0.0
2015-May-17 22:19N 48°37' W 123°09'0 0.0
2015-May-17 21:17N 48°37' W 123°09'0 0.0
2015-May-17 20:27N 48°37' W 123°09'0 0.0
2015-May-17 19:14N 48°37' W 123°09'0 0.0
2015-May-17 10:12N 48°37' W 123°09'0 0.0
2015-May-17 09:31N 48°37' W 123°09'  
Track history (hours):
 
Tides and Currents Weather Stations Pressure Air Temp Water Temp Dewpoint Dewpoint Depression Visibility Wind Speed Wind Dir Waves Ship Positions

Companion Ship

Owner: brunkow, robert w, friday harbor, WA. More information available from US FCC via Universal Licensing System and Coast Guard Vessel Documentation Center.

Last reported at 2015-May-25 16:29 UTC. Time now 2015-May-29 18:27 UTC.
Position N 52°15' W 128°21'.

Length 20 m; draft 2 m.

Type: Pleasure craft. MMSI: 367434940.

Date/timePositionNaut miles runAvg speedWind from/ knotsBaromVisibWave heightAir tempDewpointWater temp
2015-May-25 16:29N 52°15' W 128°21'1010.3
2015-May-25 15:33N 52°11' W 128°07'2 2.2
2015-May-25 14:33N 52°09' W 128°05'0 0.0
2015-May-25 13:33N 52°09' W 128°05'0 0.1
2015-May-25 12:34N 52°09' W 128°05'0 0.0
2015-May-25 11:33N 52°09' W 128°05'0 0.0
2015-May-25 10:34N 52°09' W 128°05'0 0.0
2015-May-25 09:33N 52°09' W 128°05'0 0.0
2015-May-25 08:33N 52°09' W 128°05'0 0.0
2015-May-25 07:33N 52°09' W 128°05'0 0.0
2015-May-25 06:33N 52°09' W 128°05'0 0.0
2015-May-25 05:33N 52°09' W 128°05'0 0.0
2015-May-25 04:33N 52°09' W 128°05'0 0.0
2015-May-25 03:33N 52°09' W 128°05'0 0.0
2015-May-25 02:33N 52°09' W 128°05'0 0.0
2015-May-25 01:33N 52°09' W 128°05'0 0.0
2015-May-25 00:33N 52°09' W 128°05'0 0.0
2015-May-24 23:33N 52°09' W 128°05'0 0.0
2015-May-24 22:33N 52°09' W 128°05'0 0.0
2015-May-24 21:33N 52°09' W 128°05'0 0.0
2015-May-24 20:33N 52°09' W 128°05'0 0.0
2015-May-24 19:33N 52°09' W 128°05'5 4.5
2015-May-24 18:31N 52°05' W 128°02'8 8.5
2015-May-24 17:33N 51°57' W 127°56'1010.0
2015-May-24 16:32N 51°47' W 127°57'9 0.4
2015-May-23 19:31N 51°38' W 127°56'1110.9
2015-May-23 18:31N 51°28' W 127°52'2110.6
2015-May-23 16:33N 51°07' W 127°47'1312.6
2015-May-23 15:33N 50°58' W 127°33'1212.6
2015-May-23 14:33N 50°48' W 127°21'  
2015-May-21 07:23N 49°10' W 123°56'0 0.0
2015-May-21 01:06N 49°10' W 123°56'0 0.0
2015-May-20 23:04N 49°10' W 123°56'0 0.0
2015-May-20 22:10N 49°10' W 123°56'0 0.0
2015-May-20 20:30N 49°10' W 123°56'29 6.6
2015-May-20 16:12N 48°50' W 123°25'7 8.9
2015-May-20 15:24N 48°44' W 123°21'10 5.2
2015-May-20 13:26N 48°37' W 123°09'0 0.1
2015-May-20 12:22N 48°37' W 123°09'0 0.0
2015-May-20 11:34N 48°37' W 123°09'0 0.0
2015-May-20 10:24N 48°37' W 123°09'0 0.0
2015-May-20 09:28N 48°37' W 123°09'0 0.0
2015-May-20 08:59N 48°37' W 123°09'0 0.0
2015-May-20 08:30N 48°37' W 123°09'0 0.0
2015-May-20 08:09N 48°37' W 123°09'0 0.0
2015-May-20 06:58N 48°37' W 123°09'0 0.0
2015-May-19 20:18N 48°37' W 123°09'0 0.0
2015-May-19 19:09N 48°37' W 123°09'0 0.0
2015-May-18 21:43N 48°37' W 123°09'0 0.0
2015-May-18 17:30N 48°37' W 123°09'0 0.0
2015-May-18 16:33N 48°37' W 123°09'0 0.0
2015-May-18 15:23N 48°37' W 123°09'0 0.0
2015-May-18 14:27N 48°37' W 123°09'0 0.0
2015-May-18 13:29N 48°37' W 123°09'0 0.0
2015-May-18 12:33N 48°37' W 123°09'0 0.0
2015-May-17 22:19N 48°37' W 123°09'0 0.0
2015-May-17 21:17N 48°37' W 123°09'0 0.0
2015-May-17 20:27N 48°37' W 123°09'0 0.0
2015-May-17 19:14N 48°37' W 123°09'0 0.0
2015-May-17 10:12N 48°37' W 123°09'0 0.0
2015-May-17 09:31N 48°37' W 123°09'  

Dump ship's entire track history